Flight Track Log - Related Links

Times and Time Zones

All times are in EDT time to prevent confusion due to time zone crossing. See the UAL698 flight status page for this flight to view local times or setup timezone preferences in your user account.

Time Position Orientation Groundspeed Altitude Reporting Facility
EDT Latitude Longitude Course Direction KTS MPH feet Rate Location/Type
Wed 07:52:19 PM 37.7167 -122.4167 310° West 238 274 4,600  Level Northern Cal TRACON
Wed 07:53:00 PM 37.4349 -122.3712 113° Southeast  Level FlightAware Approximate
Wed 07:53:19 PM 37.6833 -122.4833 238° Southwest 277 319 7,600  Level Northern Cal TRACON
Wed 07:54:00 PM 37.3849 -122.2691 130° Southeast  Level FlightAware Approximate
Wed 07:54:18 PM 37.6000 -122.4833 180° South 281 323 10,900  Level Northern Cal TRACON
Wed 07:54:57 PM 37.5511 -122.4656 164° South 291 335 12,400 2,580 Climbing Oakland Center
Wed 07:55:00 PM 37.3154 -122.1851 136° Southeast  Level FlightAware Approximate
Wed 07:55:58 PM 37.4814 -122.3867 138° Southeast 343 395 15,200  Level Oakland Center
Wed 07:56:00 PM 37.2494 -122.0987 122° Southeast  Level FlightAware Approximate
Wed 07:56:59 PM 37.4183 -122.2953 131° Southeast 347 399 18,100  Level Oakland Center
Wed 07:58:01 PM 37.3492 -122.2031 133° Southeast 362 417 20,500 2,177 Climbing Oakland Center
Wed 07:59:03 PM 37.2783 -122.1083 133° Southeast 374 430 22,600 2,049 Climbing Oakland Center
Wed 08:00:04 PM 37.2072 -122.0119 133° Southeast 377 434 24,700 1,820 Climbing Oakland Center
Wed 08:01:05 PM 37.1331 -121.9106 133° Southeast 393 452 26,300 1,707 Climbing Oakland Center
Wed 08:02:07 PM 37.0392 -121.7858 133° Southeast 411 473 28,200 1,805 Climbing Oakland Center
Wed 08:03:08 PM 36.9606 -121.6833 134° Southeast 409 471 30,000 1,623 Climbing Oakland Center
Wed 08:04:09 PM 36.8828 -121.5775 133° Southeast 413 475 31,500 1,366 Climbing Oakland Center
Wed 08:05:11 PM 36.8117 -121.4803 132° Southeast 414 476 32,800 1,463 Climbing Oakland Center
Wed 08:06:12 PM 36.7336 -121.3744 133° Southeast 413 475 34,500 1,033 Climbing Oakland Center
Wed 08:07:13 PM 36.6381 -121.2525 134° Southeast 411 473 34,900 197 Climbing Oakland Center
Wed 08:08:14 PM 36.5586 -121.1469 133° Southeast 415 478 34,900  Level Oakland Center
Wed 08:09:16 PM 36.4789 -121.0433 134° Southeast 414 476 34,900  Level Oakland Center
Wed 08:10:17 PM 36.3992 -120.9397 134° Southeast 413 475 34,900  Level Oakland Center
Wed 08:11:18 PM 36.3211 -120.8389 134° Southeast 406 467 34,900  Level Oakland Center
Wed 08:12:20 PM 36.2419 -120.7350 133° Southeast 411 473 34,900  Level Oakland Center
Wed 08:13:21 PM 36.1619 -120.6339 134° Southeast 410 472 34,900 49 Level Oakland Center
Wed 08:14:22 PM 36.0808 -120.5289 134° Southeast 419 482 35,000 49 Climbing Oakland Center
Wed 08:15:24 PM 35.9997 -120.4233 134° Southeast 421 484 35,000 -49 Level Oakland Center
Wed 08:16:25 PM 35.9181 -120.3189 134° Southeast 421 484 34,900 -49 Descending Oakland Center
Wed 08:17:26 PM 35.8200 -120.1958 134° Southeast 417 480 34,900  Level Oakland Center
Wed 08:18:28 PM 35.7383 -120.0908 134° Southeast 419 482 34,900  Level Oakland Center
Wed 08:19:29 PM 35.6567 -119.9892 135° Southeast 416 479 34,900  Level Oakland Center
Wed 08:20:04 PM 35.6211 -119.9542 141° Southeast 414 476 34,900  Level Los Angeles Center
Wed 08:21:07 PM 35.5058 -119.8550 145° Southeast 417 480 34,900  Level Los Angeles Center
Wed 08:22:09 PM 35.4111 -119.7719 144° Southeast 415 478 34,900  Level Los Angeles Center
Wed 08:23:11 PM 35.3150 -119.6903 145° Southeast 418 481 34,900 -290 Level Los Angeles Center
Wed 08:24:13 PM 35.2192 -119.6092 145° Southeast 418 481 34,300 -823 Descending Los Angeles Center
Wed 08:25:15 PM 35.1231 -119.5269 145° Southeast 419 482 33,200 -1,016 Descending Los Angeles Center
Wed 08:26:17 PM 35.0286 -119.4447 145° Southeast 417 480 32,200 -1,887 Descending Los Angeles Center
Wed 08:27:19 PM 34.9122 -119.3489 146° Southeast 420 483 29,300 -2,400 Descending Los Angeles Center
Wed 08:28:22 PM 34.8189 -119.2694 145° Southeast 413 475 27,200 -2,016 Descending Los Angeles Center
Wed 08:29:24 PM 34.7297 -119.1931 145° Southeast 398 458 25,100 -1,854 Descending Los Angeles Center
Wed 08:30:25 PM 34.6594 -119.1353 146° Southeast 388 447 23,400 -2,032 Descending Los Angeles Center
Wed 08:31:28 PM 34.5528 -119.0469 146° Southeast 366 421 20,900 -2,112 Descending Los Angeles Center
Wed 08:32:30 PM 34.4728 -118.9794 145° Southeast 350 403 19,000 -1,887 Descending Los Angeles Center
Wed 08:33:32 PM 34.3939 -118.9139 146° Southeast 340 391 17,000 -2,129 Descending Los Angeles Center
Wed 08:34:34 PM 34.2914 -118.8575 156° South 336 387 14,600 -2,226 Descending Los Angeles Center
Wed 08:35:36 PM 34.2014 -118.8247 163° South 336 387 12,400 -1,645 Descending Los Angeles Center
Wed 08:36:38 PM 34.1142 -118.7919 163° South 328 377 11,200 -1,161 Descending Los Angeles Center
Wed 08:37:40 PM 34.0386 -118.7436 152° Southeast 309 356 10,000 -629 Descending Los Angeles Center
Wed 08:38:42 PM 34.0275 -118.6361 97° East 301 346 9,900 -774 Descending Los Angeles Center
Wed 08:39:44 PM 34.0178 -118.5381 97° East 295 339 8,400 -1,306 Descending Los Angeles Center
Wed 08:40:46 PM 34.0106 -118.4578 96° East 287 330 7,200 -1,161 Descending Los Angeles Center
Wed 08:41:48 PM 34.0264 -118.3550 79° East 257 296 6,000 -968 Descending Los Angeles Center
Wed 08:42:50 PM 34.0386 -118.2700 80° East 248 285 5,200 -774 Descending Los Angeles Center

Login

Don't have an account? Register now (free) for customized features, flight alerts, and more!